sensor_id;sensor_type;location;lat;lon;timestamp;P1;P2;P0
57798;PMS7003;43626;53.866;30.298;2022-11-12T00:04:23;25.6;21.2;11.2
57798;PMS7003;43626;53.866;30.298;2022-11-12T00:09:01;26.6;21;11
57798;PMS7003;43626;53.866;30.298;2022-11-12T00:14:01;25.2;19;8.8
57798;PMS7003;43626;53.866;30.298;2022-11-12T00:19:47;25.8;19.6;10.4
57798;PMS7003;43626;53.866;30.298;2022-11-12T00:24:51;28;22.8;10.8
57798;PMS7003;43626;53.866;30.298;2022-11-12T00:29:37;26.8;21.2;10.6
57798;PMS7003;43626;53.866;30.298;2022-11-12T00:34:09;28.4;20.6;10.8
57798;PMS7003;43626;53.866;30.298;2022-11-12T00:39:19;27.4;21;11.6
57798;PMS7003;43626;53.866;30.298;2022-11-12T00:44:21;25.4;21;10.4
57798;PMS7003;43626;53.866;30.298;2022-11-12T00:49:37;28.2;23.4;11.6
57798;PMS7003;43626;53.866;30.298;2022-11-12T00:54:35;30.5;23.3;10.8
57798;PMS7003;43626;53.866;30.298;2022-11-12T00:59:17;27.6;21;10.6
57798;PMS7003;43626;53.866;30.298;2022-11-12T01:04:03;28.8;23.6;11.6
57798;PMS7003;43626;53.866;30.298;2022-11-12T01:09:47;29.8;24;11.2
57798;PMS7003;43626;53.866;30.298;2022-11-12T01:14:51;27.4;23;11.2
57798;PMS7003;43626;53.866;30.298;2022-11-12T01:19:23;29;22.2;11.8
57798;PMS7003;43626;53.866;30.298;2022-11-12T01:24:21;27.2;22.6;11.6
57798;PMS7003;43626;53.866;30.298;2022-11-12T01:29:13;32;23;11.4
57798;PMS7003;43626;53.866;30.298;2022-11-12T01:34:53;31.4;24.2;11.4
57798;PMS7003;43626;53.866;30.298;2022-11-12T01:39:13;33;24.8;12.6
57798;PMS7003;43626;53.866;30.298;2022-11-12T01:44:17;31.8;26;12
57798;PMS7003;43626;53.866;30.298;2022-11-12T01:49:03;26.6;22.4;11
57798;PMS7003;43626;53.866;30.298;2022-11-12T01:54:13;35;26.4;13
57798;PMS7003;43626;53.866;30.298;2022-11-12T01:59:24;31.3;24.3;12.8
57798;PMS7003;43626;53.866;30.298;2022-11-12T02:04:29;29.8;23.8;12.4
57798;PMS7003;43626;53.866;30.298;2022-11-12T02:09:39;34;26.6;13.4
57798;PMS7003;43626;53.866;30.298;2022-11-12T02:14:01;32.4;26.4;13.8
57798;PMS7003;43626;53.866;30.298;2022-11-12T02:19:01;32.8;24.8;13.4
57798;PMS7003;43626;53.866;30.298;2022-11-12T02:24:53;31.2;25.2;13.4
57798;PMS7003;43626;53.866;30.298;2022-11-12T02:29:55;34.2;27.6;14.2
57798;PMS7003;43626;53.866;30.298;2022-11-12T02:34:41;32.6;26;13.8
57798;PMS7003;43626;53.866;30.298;2022-11-12T02:39:03;34.4;27.4;14.2
57798;PMS7003;43626;53.866;30.298;2022-11-12T02:44:03;35.6;27.4;13.4
57798;PMS7003;43626;53.866;30.298;2022-11-12T02:49:41;34.4;27.4;13.4
57798;PMS7003;43626;53.866;30.298;2022-11-12T02:54:21;34.6;25.8;14.2
57798;PMS7003;43626;53.866;30.298;2022-11-12T02:59:53;33.3;25;12.3
57798;PMS7003;43626;53.866;30.298;2022-11-12T03:04:03;34.6;27;13.8
57798;PMS7003;43626;53.866;30.298;2022-11-12T03:09:21;42.2;32.6;17.8
57798;PMS7003;43626;53.866;30.298;2022-11-12T03:14:25;35.2;29.2;16.2
57798;PMS7003;43626;53.866;30.298;2022-11-12T03:19:53;36.4;29.4;15
57798;PMS7003;43626;53.866;30.298;2022-11-12T03:24:29;36.2;30.2;15.2
57798;PMS7003;43626;53.866;30.298;2022-11-12T03:29:03;37.6;28.6;14.2
57798;PMS7003;43626;53.866;30.298;2022-11-12T03:34:03;34;28.8;14.2
57798;PMS7003;43626;53.866;30.298;2022-11-12T03:39:51;37.8;27;13.4
57798;PMS7003;43626;53.866;30.298;2022-11-12T03:44:53;32.6;27;14.2
57798;PMS7003;43626;53.866;30.298;2022-11-12T03:49:03;34;29;15.6
57798;PMS7003;43626;53.866;30.298;2022-11-12T03:54:03;31.8;25.8;13.6
57798;PMS7003;43626;53.866;30.298;2022-11-12T03:59:13;31.8;25.8;13
57798;PMS7003;43626;53.866;30.298;2022-11-12T04:04:53;28.6;25.4;13.2
57798;PMS7003;43626;53.866;30.298;2022-11-12T04:09:21;31.6;26;13.6
57798;PMS7003;43626;53.866;30.298;2022-11-12T04:14:37;30.4;23.6;12.6
57798;PMS7003;43626;53.866;30.298;2022-11-12T04:19:13;35.2;28;14.6
57798;PMS7003;43626;53.866;30.298;2022-11-12T04:24:13;39.6;28.8;15.6
57798;PMS7003;43626;53.866;30.298;2022-11-12T04:29:03;34.2;27.4;15
57798;PMS7003;43626;53.866;30.298;2022-11-12T04:34:35;33;26.2;14
57798;PMS7003;43626;53.866;30.298;2022-11-12T04:39:27;32.4;26.6;14.6
57798;PMS7003;43626;53.866;30.298;2022-11-12T04:44:53;33.6;26;14.4
57798;PMS7003;43626;53.866;30.298;2022-11-12T04:49:03;30;24.8;13.8
57798;PMS7003;43626;53.866;30.298;2022-11-12T04:54:37;30;24.2;13.6
57798;PMS7003;43626;53.866;30.298;2022-11-12T04:59:21;31.3;24.8;15
57798;PMS7003;43626;53.866;30.298;2022-11-12T05:04:53;31.6;25.8;13.6
57798;PMS7003;43626;53.866;30.298;2022-11-12T05:09:25;32;26;13.8
57798;PMS7003;43626;53.866;30.298;2022-11-12T05:14:13;34;26.4;15
57798;PMS7003;43626;53.866;30.298;2022-11-12T05:19:25;31.6;24.6;13.6
57798;PMS7003;43626;53.866;30.298;2022-11-12T05:24:53;30.8;25.2;14
57798;PMS7003;43626;53.866;30.298;2022-11-12T05:29:53;34;27.4;15
57798;PMS7003;43626;53.866;30.298;2022-11-12T05:34:53;33;27.2;15.4
57798;PMS7003;43626;53.866;30.298;2022-11-12T05:39:01;33.2;26.6;14.2
57798;PMS7003;43626;53.866;30.298;2022-11-12T05:44:41;33.8;28.2;16
57798;PMS7003;43626;53.866;30.298;2022-11-12T05:49:35;36;27;15.2
57798;PMS7003;43626;53.866;30.298;2022-11-12T05:54:39;34.6;28.2;15
57798;PMS7003;43626;53.866;30.298;2022-11-12T05:59:53;29.5;24.5;14.3
57798;PMS7003;43626;53.866;30.298;2022-11-12T06:04:03;35.2;28.4;15
57798;PMS7003;43626;53.866;30.298;2022-11-12T06:09:37;31.2;26.4;14.2
57798;PMS7003;43626;53.866;30.298;2022-11-12T06:14:23;33.6;26.6;15.4
57798;PMS7003;43626;53.866;30.298;2022-11-12T06:19:53;29;24.2;13.6
57798;PMS7003;43626;53.866;30.298;2022-11-12T06:24:53;32;24;13.6
57798;PMS7003;43626;53.866;30.298;2022-11-12T06:29:03;30.2;25;14.4
57798;PMS7003;43626;53.866;30.298;2022-11-12T06:34:23;32.2;25.6;14.2
57798;PMS7003;43626;53.866;30.298;2022-11-12T06:39:49;27.8;21.8;12
57798;PMS7003;43626;53.866;30.298;2022-11-12T06:44:53;26.6;22.2;12
57798;PMS7003;43626;53.866;30.298;2022-11-12T06:49:53;28.6;23;12.6
57798;PMS7003;43626;53.866;30.298;2022-11-12T06:54:03;26.6;21.2;11.4
57798;PMS7003;43626;53.866;30.298;2022-11-12T06:59:39;27.4;21.8;11.8
57798;PMS7003;43626;53.866;30.298;2022-11-12T07:04:15;24.5;21.5;12.3
57798;PMS7003;43626;53.866;30.298;2022-11-12T07:09:03;26.6;21.4;11.8
57798;PMS7003;43626;53.866;30.298;2022-11-12T07:14:53;25;18.8;10.6
57798;PMS7003;43626;53.866;30.298;2022-11-12T07:19:03;25;21;11.4
57798;PMS7003;43626;53.866;30.298;2022-11-12T07:24:37;21.8;17;9.8
57798;PMS7003;43626;53.866;30.298;2022-11-12T07:29:21;22.8;18.2;10
57798;PMS7003;43626;53.866;30.298;2022-11-12T07:34:53;24.2;19.4;10.8
57798;PMS7003;43626;53.866;30.298;2022-11-12T07:39:01;22.6;17.4;10.4
57798;PMS7003;43626;53.866;30.298;2022-11-12T07:44:35;21.6;18.4;10.2
57798;PMS7003;43626;53.866;30.298;2022-11-12T07:49:23;21;17.2;10
57798;PMS7003;43626;53.866;30.298;2022-11-12T07:54:51;16.6;13;7.6
57798;PMS7003;43626;53.866;30.298;2022-11-12T07:59:41;19.4;15.6;9.6
57798;PMS7003;43626;53.866;30.298;2022-11-12T08:04:43;15.3;12;7.8
57798;PMS7003;43626;53.866;30.298;2022-11-12T08:09:04;19.8;17.4;10.4
57798;PMS7003;43626;53.866;30.298;2022-11-12T08:14:39;20;17;10
57798;PMS7003;43626;53.866;30.298;2022-11-12T08:19:35;22.6;20.2;12.2
57798;PMS7003;43626;53.866;30.298;2022-11-12T08:24:03;19.2;17.4;10.6
57798;PMS7003;43626;53.866;30.298;2022-11-12T08:29:53;15.8;13.2;8
57798;PMS7003;43626;53.866;30.298;2022-11-12T08:34:37;17.2;14.6;8.6
57798;PMS7003;43626;53.866;30.298;2022-11-12T08:39:35;17;14.2;8.2
57798;PMS7003;43626;53.866;30.298;2022-11-12T08:44:23;17.8;13.2;7.6
57798;PMS7003;43626;53.866;30.298;2022-11-12T08:49:53;21.4;17.6;10
57798;PMS7003;43626;53.866;30.298;2022-11-12T08:54:27;20;15.4;8.6
57798;PMS7003;43626;53.866;30.298;2022-11-12T08:59:13;18.6;15.4;9.2
57798;PMS7003;43626;53.866;30.298;2022-11-12T09:04:25;16.3;14;8
57798;PMS7003;43626;53.866;30.298;2022-11-12T09:09:37;14.4;13.2;7.8
57798;PMS7003;43626;53.866;30.298;2022-11-12T09:14:11;13.4;11.6;6.4
57798;PMS7003;43626;53.866;30.298;2022-11-12T09:19:53;12.8;10.6;6.2
57798;PMS7003;43626;53.866;30.298;2022-11-12T09:24:11;15.4;12.8;7.4
57798;PMS7003;43626;53.866;30.298;2022-11-12T09:29:19;13;10.8;6.6
57798;PMS7003;43626;53.866;30.298;2022-11-12T09:34:37;14;12;6.8
57798;PMS7003;43626;53.866;30.298;2022-11-12T09:39:35;11.8;9.4;5.6
57798;PMS7003;43626;53.866;30.298;2022-11-12T09:44:54;12.2;10.2;6.6
57798;PMS7003;43626;53.866;30.298;2022-11-12T09:49:11;12.6;10.2;6.6
57798;PMS7003;43626;53.866;30.298;2022-11-12T09:54:54;11.4;8.8;5.4
57798;PMS7003;43626;53.866;30.298;2022-11-12T09:59:25;11;8.6;5.8
57798;PMS7003;43626;53.866;30.298;2022-11-12T10:04:41;12.5;10;7
57798;PMS7003;43626;53.866;30.298;2022-11-12T10:09:18;9.8;8.6;5.8
57798;PMS7003;43626;53.866;30.298;2022-11-12T10:14:15;9.4;8.2;5.2
57798;PMS7003;43626;53.866;30.298;2022-11-12T10:19:08;10;8.6;5.4
57798;PMS7003;43626;53.866;30.298;2022-11-12T10:24:39;10;8.5;5
57798;PMS7003;43626;53.866;30.298;2022-11-12T10:29:29;17.4;14;8.2
57798;PMS7003;43626;53.866;30.298;2022-11-12T10:34:53;11;9.6;5.6
57798;PMS7003;43626;53.866;30.298;2022-11-12T10:39:01;12;8.8;5.2
57798;PMS7003;43626;53.866;30.298;2022-11-12T10:44:41;10.6;9.4;5.4
57798;PMS7003;43626;53.866;30.298;2022-11-12T10:49:37;10;8.6;5.6
57798;PMS7003;43626;53.866;30.298;2022-11-12T10:54:34;7.8;6.6;4.6
57798;PMS7003;43626;53.866;30.298;2022-11-12T11:00:04;7.2;6.2;4
57798;PMS7003;43626;53.866;30.298;2022-11-12T11:04:15;8;7;4.2
57798;PMS7003;43626;53.866;30.298;2022-11-12T11:09:53;8.6;6.2;3.6
57798;PMS7003;43626;53.866;30.298;2022-11-12T11:14:23;7.2;6.4;3.6
57798;PMS7003;43626;53.866;30.298;2022-11-12T11:19:40;7.4;7;4.8
57798;PMS7003;43626;53.866;30.298;2022-11-12T11:24:30;9;7.3;4.5
57798;PMS7003;43626;53.866;30.298;2022-11-12T11:29:07;6.8;6.6;4.2
57798;PMS7003;43626;53.866;30.298;2022-11-12T11:34:08;8.4;6.8;4.2
57798;PMS7003;43626;53.866;30.298;2022-11-12T11:39:19;7.5;6.5;4
57798;PMS7003;43626;53.866;30.298;2022-11-12T11:44:25;8.6;7;4.4
57798;PMS7003;43626;53.866;30.298;2022-11-12T11:49:56;8.6;6.6;4.2
57798;PMS7003;43626;53.866;30.298;2022-11-12T11:54:06;7.5;6.3;3.8
57798;PMS7003;43626;53.866;30.298;2022-11-12T11:59:42;8.8;7.2;4.2
57798;PMS7003;43626;53.866;30.298;2022-11-12T12:04:41;6.2;5.8;3.8
57798;PMS7003;43626;53.866;30.298;2022-11-12T12:09:41;9;6.8;4
57798;PMS7003;43626;53.866;30.298;2022-11-12T12:14:56;7.6;7;4.4
57798;PMS7003;43626;53.866;30.298;2022-11-12T12:19:05;7.4;6.8;4.4
57798;PMS7003;43626;53.866;30.298;2022-11-12T12:24:08;9.2;7.6;4.4
57798;PMS7003;43626;53.866;30.298;2022-11-12T12:29:39;8.4;7.2;4.6
57798;PMS7003;43626;53.866;30.298;2022-11-12T12:34:40;9.6;7;4.4
57798;PMS7003;43626;53.866;30.298;2022-11-12T12:39:03;7.6;6.2;4.2
57798;PMS7003;43626;53.866;30.298;2022-11-12T12:44:03;8.4;6.4;3.8
57798;PMS7003;43626;53.866;30.298;2022-11-12T12:49:41;7.2;6.6;3.8
57798;PMS7003;43626;53.866;30.298;2022-11-12T12:54:55;7;6.3;4
57798;PMS7003;43626;53.866;30.298;2022-11-12T12:59:25;6.4;5.8;3.4
57798;PMS7003;43626;53.866;30.298;2022-11-12T13:04:55;8.2;6.8;4
57798;PMS7003;43626;53.866;30.298;2022-11-12T13:09:19;6.8;5.6;3.8
57798;PMS7003;43626;53.866;30.298;2022-11-12T13:15:12;13;11.6;6.4
57798;PMS7003;43626;53.866;30.298;2022-11-12T13:19:31;13.6;11;6
57798;PMS7003;43626;53.866;30.298;2022-11-12T13:25:27;14.4;11;6.2
57798;PMS7003;43626;53.866;30.298;2022-11-12T13:29:42;15.4;12.6;7.4
57798;PMS7003;43626;53.866;30.298;2022-11-12T13:34:17;16.2;12.6;8.2
57798;PMS7003;43626;53.866;30.298;2022-11-12T13:39:53;8.4;6.6;3.8
57798;PMS7003;43626;53.866;30.298;2022-11-12T13:44:55;8.4;7.2;4.4
57798;PMS7003;43626;53.866;30.298;2022-11-12T13:49:25;8.4;6.4;4.2
57798;PMS7003;43626;53.866;30.298;2022-11-12T13:54:30;9.6;9;5.4
57798;PMS7003;43626;53.866;30.298;2022-11-12T13:59:12;29.8;25.3;15
57798;PMS7003;43626;53.866;30.298;2022-11-12T14:04:23;8.8;7.8;5
57798;PMS7003;43626;53.866;30.298;2022-11-12T14:09:55;9.2;8;5
57798;PMS7003;43626;53.866;30.298;2022-11-12T14:14:16;14;11;7.8
57798;PMS7003;43626;53.866;30.298;2022-11-12T14:20:02;38.2;30.2;17.8
57798;PMS7003;43626;53.866;30.298;2022-11-12T14:24:13;41;32.4;19.8
57798;PMS7003;43626;53.866;30.298;2022-11-12T14:30:03;47.6;37.2;22
57798;PMS7003;43626;53.866;30.298;2022-11-12T14:34:21;53;39.2;23.8
57798;PMS7003;43626;53.866;30.298;2022-11-12T14:39:37;41.6;32.8;19.8
57798;PMS7003;43626;53.866;30.298;2022-11-12T14:44:41;74.6;62.8;37.4
57798;PMS7003;43626;53.866;30.298;2022-11-12T14:49:16;77.6;61.2;36
57798;PMS7003;43626;53.866;30.298;2022-11-12T14:54:56;32.6;26;16.4
57798;PMS7003;43626;53.866;30.298;2022-11-12T14:59:55;46.8;36.5;22
57798;PMS7003;43626;53.866;30.298;2022-11-12T15:04:40;28.2;24.6;15.4
57798;PMS7003;43626;53.866;30.298;2022-11-12T15:09:03;13.2;11.8;6.8
57798;PMS7003;43626;53.866;30.298;2022-11-12T15:14:19;9;7.2;4.4
57798;PMS7003;43626;53.866;30.298;2022-11-12T15:19:14;7.2;6.2;4.4
57798;PMS7003;43626;53.866;30.298;2022-11-12T15:24:53;6.6;6.6;4.2
57798;PMS7003;43626;53.866;30.298;2022-11-12T15:29:24;7.6;6.4;3.8
57798;PMS7003;43626;53.866;30.298;2022-11-12T15:34:53;7.6;6;3.4
57798;PMS7003;43626;53.866;30.298;2022-11-12T15:39:01;6;4.8;3.4
57798;PMS7003;43626;53.866;30.298;2022-11-12T15:44:56;3.8;3.2;2
57798;PMS7003;43626;53.866;30.298;2022-11-12T15:49:08;4;3;1.6
57798;PMS7003;43626;53.866;30.298;2022-11-12T15:54:41;4.6;3.4;2
57798;PMS7003;43626;53.866;30.298;2022-11-12T15:59:41;5.5;4;2.3
57798;PMS7003;43626;53.866;30.298;2022-11-12T16:04:17;4.8;4;2.4
57798;PMS7003;43626;53.866;30.298;2022-11-12T16:09:53;3.6;3.2;1.6
57798;PMS7003;43626;53.866;30.298;2022-11-12T16:14:55;4.4;3;1.4
57798;PMS7003;43626;53.866;30.298;2022-11-12T16:19:39;5.4;4.6;2.4
57798;PMS7003;43626;53.866;30.298;2022-11-12T16:24:27;4.2;3.8;1.8
57798;PMS7003;43626;53.866;30.298;2022-11-12T16:29:13;4.2;3.6;2
57798;PMS7003;43626;53.866;30.298;2022-11-12T16:34:41;4.2;3;1.4
57798;PMS7003;43626;53.866;30.298;2022-11-12T16:39:37;6.6;5;3.4
57798;PMS7003;43626;53.866;30.298;2022-11-12T16:44:23;5.4;4.4;2.8
57798;PMS7003;43626;53.866;30.298;2022-11-12T16:49:55;4.2;4;2.4
57798;PMS7003;43626;53.866;30.298;2022-11-12T16:54:15;4.2;3.4;1.8
57798;PMS7003;43626;53.866;30.298;2022-11-12T16:59:55;5;3.5;2
57798;PMS7003;43626;53.866;30.298;2022-11-12T17:04:25;2.4;2.2;1.2
57798;PMS7003;43626;53.866;30.298;2022-11-12T17:09:41;2.6;2.6;1.2
57798;PMS7003;43626;53.866;30.298;2022-11-12T17:14:41;3.4;2.4;1
57798;PMS7003;43626;53.866;30.298;2022-11-12T17:19:17;3.2;2.6;1.4
57798;PMS7003;43626;53.866;30.298;2022-11-12T17:24:03;3.8;2.4;1.2
57798;PMS7003;43626;53.866;30.298;2022-11-12T17:29:53;4.8;3.4;1.6
57798;PMS7003;43626;53.866;30.298;2022-11-12T17:34:53;3.6;2.2;1.4
57798;PMS7003;43626;53.866;30.298;2022-11-12T17:39:11;2.8;2.4;1.2
57798;PMS7003;43626;53.866;30.298;2022-11-12T17:44:04;3.2;2.6;1
57798;PMS7003;43626;53.866;30.298;2022-11-12T17:49:17;2.8;2.4;1.2
57798;PMS7003;43626;53.866;30.298;2022-11-12T17:54:53;4;2.8;1.8
57798;PMS7003;43626;53.866;30.298;2022-11-12T17:59:23;2.5;2.5;1.5
57798;PMS7003;43626;53.866;30.298;2022-11-12T18:04:41;2.6;2;1.4
57798;PMS7003;43626;53.866;30.298;2022-11-12T18:09:12;3.6;2.6;1.2
57798;PMS7003;43626;53.866;30.298;2022-11-12T18:14:05;5;4;2.2
57798;PMS7003;43626;53.866;30.298;2022-11-12T18:19:13;3.6;3;1.4
57798;PMS7003;43626;53.866;30.298;2022-11-12T18:24:40;4.8;3.8;2
57798;PMS7003;43626;53.866;30.298;2022-11-12T18:29:41;4;3.4;1.8
57798;PMS7003;43626;53.866;30.298;2022-11-12T18:34:03;3.6;3.2;1.2
57798;PMS7003;43626;53.866;30.298;2022-11-12T18:39:02;4;3.6;1.8
57798;PMS7003;43626;53.866;30.298;2022-11-12T18:44:53;5.6;4.4;2.2
57798;PMS7003;43626;53.866;30.298;2022-11-12T18:49:53;5.8;4.2;2.4
57798;PMS7003;43626;53.866;30.298;2022-11-12T18:54:27;5.4;4.6;2.8
57798;PMS7003;43626;53.866;30.298;2022-11-12T18:59:13;4.8;4;2
57798;PMS7003;43626;53.866;30.298;2022-11-12T19:04:03;4.5;4;2
57798;PMS7003;43626;53.866;30.298;2022-11-12T19:09:53;5;3.8;2.6
57798;PMS7003;43626;53.866;30.298;2022-11-12T19:14:23;5.2;3;1.4
57798;PMS7003;43626;53.866;30.298;2022-11-12T19:19:41;4.6;4;1.8
57798;PMS7003;43626;53.866;30.298;2022-11-12T19:24:13;3;2.4;1.2
57798;PMS7003;43626;53.866;30.298;2022-11-12T19:29:03;3.2;2.4;1
57798;PMS7003;43626;53.866;30.298;2022-11-12T19:34:25;5.2;4.4;2.6
57798;PMS7003;43626;53.866;30.298;2022-11-12T19:39:40;4.6;3.6;1.8
57798;PMS7003;43626;53.866;30.298;2022-11-12T19:44:37;4.8;3.6;1.8
57798;PMS7003;43626;53.866;30.298;2022-11-12T19:49:13;6.8;4.4;2.6
57798;PMS7003;43626;53.866;30.298;2022-11-12T19:54:03;3.8;3;1.8
57798;PMS7003;43626;53.866;30.298;2022-11-12T19:59:53;3.6;3.4;1.8
57798;PMS7003;43626;53.866;30.298;2022-11-12T20:04:53;4.8;3;1.5
57798;PMS7003;43626;53.866;30.298;2022-11-12T20:09:27;4.8;3.6;1.8
57798;PMS7003;43626;53.866;30.298;2022-11-12T20:14:13;2.8;2.4;1.6
57798;PMS7003;43626;53.866;30.298;2022-11-12T20:19:03;2.3;2;0.8
57798;PMS7003;43626;53.866;30.298;2022-11-12T20:24:53;4;2.6;1.2
57798;PMS7003;43626;53.866;30.298;2022-11-12T20:29:13;3;2.6;1.4
57798;PMS7003;43626;53.866;30.298;2022-11-12T20:34:41;3;2.4;0.8
57798;PMS7003;43626;53.866;30.298;2022-11-12T20:39:11;3;2.2;1.6
57798;PMS7003;43626;53.866;30.298;2022-11-12T20:44:15;3.2;2.4;1.2
57798;PMS7003;43626;53.866;30.298;2022-11-12T20:49:13;2;1.6;0.6
57798;PMS7003;43626;53.866;30.298;2022-11-12T20:54:45;2.2;2;0.8
57798;PMS7003;43626;53.866;30.298;2022-11-12T20:59:41;4;2.6;1
57798;PMS7003;43626;53.866;30.298;2022-11-12T21:04:11;3.6;2.4;1.2
57798;PMS7003;43626;53.866;30.298;2022-11-12T21:09:11;2.6;1.8;1
57798;PMS7003;43626;53.866;30.298;2022-11-12T21:14:54;2.8;2;0.8
57798;PMS7003;43626;53.866;30.298;2022-11-12T21:19:55;2;1.8;0.8
57798;PMS7003;43626;53.866;30.298;2022-11-12T21:24:27;2.2;1.4;1
57798;PMS7003;43626;53.866;30.298;2022-11-12T21:29:03;1.2;1.2;0.4
57798;PMS7003;43626;53.866;30.298;2022-11-12T21:34:13;2;1.4;0.6
57798;PMS7003;43626;53.866;30.298;2022-11-12T21:39:53;2.2;1.4;0.8
57798;PMS7003;43626;53.866;30.298;2022-11-12T21:44:21;2.2;1.6;0.4
57798;PMS7003;43626;53.866;30.298;2022-11-12T21:49:55;1.8;1.6;0.8
57798;PMS7003;43626;53.866;30.298;2022-11-12T21:54:55;1.8;1.4;0.6
57798;PMS7003;43626;53.866;30.298;2022-11-12T21:59:09;2.2;1.4;0.4
57798;PMS7003;43626;53.866;30.298;2022-11-12T22:04:37;1.6;1.6;0.6
57798;PMS7003;43626;53.866;30.298;2022-11-12T22:09:33;2.2;2;1
57798;PMS7003;43626;53.866;30.298;2022-11-12T22:14:03;2;1.6;0.8
57798;PMS7003;43626;53.866;30.298;2022-11-12T22:19:51;3.6;1.6;0.6
57798;PMS7003;43626;53.866;30.298;2022-11-12T22:24:29;2.3;2;1
57798;PMS7003;43626;53.866;30.298;2022-11-12T22:29:21;2;1.2;0.6
57798;PMS7003;43626;53.866;30.298;2022-11-12T22:34:03;3.8;2.8;1.6
57798;PMS7003;43626;53.866;30.298;2022-11-12T22:39:47;3;2.2;1.4
57798;PMS7003;43626;53.866;30.298;2022-11-12T22:44:23;2.8;2.2;1
57798;PMS7003;43626;53.866;30.298;2022-11-12T22:49:21;3.2;2.4;1.4
57798;PMS7003;43626;53.866;30.298;2022-11-12T22:54:21;1.8;1.4;0.8
57798;PMS7003;43626;53.866;30.298;2022-11-12T22:59:51;2.8;1.8;1
57798;PMS7003;43626;53.866;30.298;2022-11-12T23:04:51;2.6;2;1.2
57798;PMS7003;43626;53.866;30.298;2022-11-12T23:09:51;2.8;2;1
57798;PMS7003;43626;53.866;30.298;2022-11-12T23:14:19;3.8;2.8;1.6
57798;PMS7003;43626;53.866;30.298;2022-11-12T23:19:35;3.8;2.8;1.2
57798;PMS7003;43626;53.866;30.298;2022-11-12T23:24:33;1.8;1.5;0.5
57798;PMS7003;43626;53.866;30.298;2022-11-12T23:29:23;2.4;1.8;1
57798;PMS7003;43626;53.866;30.298;2022-11-12T23:34:49;2.6;2.2;0.8
57798;PMS7003;43626;53.866;30.298;2022-11-12T23:39:49;1.8;1.8;1.4
57798;PMS7003;43626;53.866;30.298;2022-11-12T23:44:35;2.6;2.2;1.6
57798;PMS7003;43626;53.866;30.298;2022-11-12T23:49:03;3;2.6;1.6
57798;PMS7003;43626;53.866;30.298;2022-11-12T23:54:51;3.2;2.4;1.6
57798;PMS7003;43626;53.866;30.298;2022-11-12T23:59:23;3.8;2.8;1.4
